Time;durP1;ratioP1;P1;durP2;ratioP2;P2;SDS_P1;SDS_P2;PMS_P1;PMS_P2;Temp;Humidity;BMP_temperature;BMP_pressure;BME280_temperature;BME280_humidity;BME280_pressure;Samples;Min_cycle;Max_cycle;Signal;HPM_P1;HPM_P2
2022/07/28 00:01:33;;;;;;;5.67;1.80;;;13.40;99.90;;;;;;5091166;28;20201;-69
2022/07/28 00:04:00;;;;;;;5.00;1.27;;;13.30;99.90;;;;;;5078026;28;20285;-68
2022/07/28 00:06:27;;;;;;;4.10;1.60;;;13.20;99.90;;;;;;5088391;28;20202;-69
2022/07/28 00:08:56;;;;;;;5.47;1.20;;;13.10;99.90;;;;;;5083351;28;20208;-68
2022/07/28 00:11:23;;;;;;;5.50;1.63;;;12.90;99.90;;;;;;5090228;28;20479;-68
2022/07/28 00:13:51;;;;;;;2.13;1.53;;;13.00;99.90;;;;;;5091972;28;20198;-69
2022/07/28 00:16:18;;;;;;;3.33;1.70;;;13.00;99.90;;;;;;5091528;28;20572;-69
2022/07/28 00:18:45;;;;;;;4.47;1.90;;;12.80;99.90;;;;;;5091393;28;20201;-69
2022/07/28 00:21:12;;;;;;;5.50;1.70;;;13.00;99.90;;;;;;5090898;28;20197;-69
2022/07/28 00:23:39;;;;;;;3.63;1.60;;;13.00;99.90;;;;;;5091343;28;20557;-69
2022/07/28 00:26:08;;;;;;;4.50;1.70;;;13.00;99.90;;;;;;5090729;28;20201;-69
2022/07/28 00:28:35;;;;;;;2.33;1.60;;;12.90;99.90;;;;;;5091446;28;20197;-69
2022/07/28 00:31:02;;;;;;;4.00;1.90;;;12.90;99.90;;;;;;5091245;28;20232;-69
2022/07/28 00:33:29;;;;;;;3.03;1.60;;;12.70;99.90;;;;;;5090271;28;20641;-68
2022/07/28 00:35:55;;;;;;;6.53;1.70;;;12.80;99.90;;;;;;5094445;28;20212;-69
2022/07/28 00:38:22;;;;;;;3.20;1.40;;;12.50;99.90;;;;;;5094809;28;20667;-69
2022/07/28 00:43:35;;;;;;;2.07;1.50;;;12.50;99.90;;;;;;5095014;28;20690;-68
2022/07/28 00:46:02;;;;;;;3.30;1.43;;;12.10;99.90;;;;;;5094384;28;20209;-68
2022/07/28 00:48:29;;;;;;;7.83;2.30;;;12.00;99.90;;;;;;5094379;28;20200;-68
2022/07/28 00:50:55;;;;;;;4.27;1.50;;;12.10;99.90;;;;;;5090522;28;20208;-69
2022/07/28 00:53:23;;;;;;;3.37;1.60;;;11.90;99.90;;;;;;5091452;28;20297;-68
2022/07/28 00:55:50;;;;;;;5.80;1.83;;;11.60;99.90;;;;;;5091290;28;20198;-68
2022/07/28 00:58:17;;;;;;;5.37;2.07;;;11.70;99.90;;;;;;5092201;28;20206;-69
2022/07/28 01:00:45;;;;;;;3.23;1.60;;;11.80;99.90;;;;;;5086517;28;20202;-68
2022/07/28 01:03:12;;;;;;;3.00;1.40;;;11.80;99.90;;;;;;5093564;28;20200;-68
2022/07/28 01:05:49;;;;;;;3.13;1.30;;;11.90;99.90;;;;;;5093603;28;20204;-69
2022/07/28 01:08:24;;;;;;;5.17;1.97;;;11.70;99.90;;;;;;5085892;28;20194;-68
2022/07/28 01:11:00;;;;;;;4.10;1.90;;;11.60;99.90;;;;;;5083025;28;20239;-70
2022/07/28 01:13:38;;;;;;;3.63;1.57;;;11.70;99.90;;;;;;5093380;28;20669;-68
2022/07/28 01:16:08;;;;;;;5.17;1.60;;;11.70;99.90;;;;;;5087247;28;20206;-69
2022/07/28 01:18:42;;;;;;;4.10;1.50;;;11.70;99.90;;;;;;5089954;28;20554;-69
2022/07/28 01:21:12;;;;;;;3.03;1.30;;;11.70;99.90;;;;;;5085079;28;20209;-68
2022/07/28 01:24:07;;;;;;;4.67;1.77;;;11.10;99.90;;;;;;5091169;28;20621;-69
2022/07/28 01:26:43;;;;;;;3.13;1.73;;;10.90;99.90;;;;;;5087756;28;20260;-69
2022/07/28 01:29:34;;;;;;;5.67;1.30;;;10.70;99.90;;;;;;5092764;28;20200;-68
2022/07/28 01:32:06;;;;;;;3.87;1.50;;;10.80;99.90;;;;;;5093734;28;20300;-68
2022/07/28 01:34:41;;;;;;;4.97;2.27;;;11.00;99.90;;;;;;5093672;28;20197;-68
2022/07/28 01:37:12;;;;;;;3.87;1.77;;;11.10;99.90;;;;;;5092641;28;20243;-68
2022/07/28 01:39:42;;;;;;;3.13;1.60;;;11.40;99.90;;;;;;5093965;28;20637;-69
2022/07/28 01:42:12;;;;;;;2.73;1.67;;;11.60;99.90;;;;;;5092616;28;20781;-68
2022/07/28 01:44:44;;;;;;;3.40;1.50;;;11.50;99.90;;;;;;5093368;28;20609;-69
2022/07/28 01:47:14;;;;;;;2.80;1.53;;;11.50;99.90;;;;;;5081973;28;20240;-68
2022/07/28 01:49:42;;;;;;;3.87;1.80;;;10.50;99.90;;;;;;5073473;28;20228;-68
2022/07/28 01:52:10;;;;;;;5.53;1.53;;;10.30;99.90;;;;;;5093298;28;20221;-69
2022/07/28 01:54:40;;;;;;;5.23;2.00;;;10.30;99.90;;;;;;5093039;28;20216;-68
2022/07/28 01:57:13;;;;;;;10.47;1.80;;;10.40;99.90;;;;;;5086561;28;20554;-68
2022/07/28 01:59:41;;;;;;;3.43;1.80;;;10.50;99.90;;;;;;5092781;28;20294;-69
2022/07/28 02:02:10;;;;;;;2.53;1.57;;;10.50;99.90;;;;;;5093196;28;20189;-68
2022/07/28 02:04:41;;;;;;;2.77;1.80;;;10.60;99.90;;;;;;5092201;28;20635;-68
2022/07/28 02:07:09;;;;;;;3.23;1.90;;;10.70;99.90;;;;;;5085644;28;20209;-68
2022/07/28 02:09:38;;;;;;;2.83;1.90;;;10.60;99.90;;;;;;5093338;28;20655;-69
2022/07/28 02:12:07;;;;;;;4.00;2.17;;;10.50;99.90;;;;;;5092428;28;20248;-69
2022/07/28 02:14:36;;;;;;;4.77;1.80;;;10.50;99.90;;;;;;5083327;28;20285;-68
2022/07/28 02:17:09;;;;;;;3.87;2.07;;;10.60;99.90;;;;;;5088248;28;20205;-69
2022/07/28 02:19:39;;;;;;;5.03;2.17;;;10.50;99.90;;;;;;5090125;28;20639;-68
2022/07/28 02:22:07;;;;;;;6.27;2.20;;;10.40;99.90;;;;;;5084334;28;20193;-69
2022/07/28 02:24:35;;;;;;;3.43;1.67;;;10.30;99.90;;;;;;5092113;28;20201;-68
2022/07/28 02:27:08;;;;;;;5.33;1.73;;;10.40;99.90;;;;;;5091987;28;20296;-69
2022/07/28 02:29:42;;;;;;;3.93;1.70;;;10.20;99.90;;;;;;5092227;28;20201;-69
2022/07/28 02:32:14;;;;;;;2.93;1.67;;;9.90;99.90;;;;;;5088119;28;20313;-69
2022/07/28 02:34:43;;;;;;;3.87;1.80;;;10.10;99.90;;;;;;5077882;28;20190;-69
2022/07/28 02:37:14;;;;;;;4.87;1.80;;;10.20;99.90;;;;;;5092074;28;20643;-69
2022/07/28 02:39:44;;;;;;;6.03;2.47;;;10.40;99.90;;;;;;5088420;28;20662;-68
2022/07/28 02:42:17;;;;;;;4.23;2.03;;;10.40;99.90;;;;;;5092273;28;20608;-69
2022/07/28 02:44:49;;;;;;;1.97;1.77;;;10.40;99.90;;;;;;5092425;28;20205;-68
2022/07/28 02:47:22;;;;;;;3.23;1.60;;;9.80;99.90;;;;;;5092942;28;20284;-69
2022/07/28 02:49:52;;;;;;;4.30;1.90;;;9.60;99.90;;;;;;5092273;28;20212;-69
2022/07/28 02:52:22;;;;;;;3.37;2.10;;;9.40;99.90;;;;;;5091248;28;20225;-69
2022/07/28 02:54:51;;;;;;;5.10;1.80;;;9.30;99.90;;;;;;5091200;28;20212;-68
2022/07/28 02:57:18;;;;;;;4.63;1.60;;;9.60;99.90;;;;;;5092093;28;20204;-69
2022/07/28 02:59:47;;;;;;;5.67;2.20;;;9.80;99.90;;;;;;5092472;28;20205;-68
2022/07/28 03:02:14;;;;;;;1.93;1.43;;;10.10;99.90;;;;;;5091838;28;20185;-68
2022/07/28 03:04:59;;;;;;;5.37;1.87;;;10.30;99.90;;;;;;5092031;28;20296;-68
2022/07/28 03:07:28;;;;;;;4.43;1.80;;;10.30;99.90;;;;;;5087632;28;20216;-69
2022/07/28 03:09:55;;;;;;;3.53;1.60;;;10.30;99.90;;;;;;5071543;28;20217;-68
2022/07/28 03:12:22;;;;;;;3.73;2.13;;;10.40;99.90;;;;;;5079564;28;20210;-68
2022/07/28 03:14:49;;;;;;;3.57;2.13;;;10.30;99.90;;;;;;5090958;28;20208;-68
2022/07/28 03:17:18;;;;;;;6.53;1.87;;;10.40;99.90;;;;;;5079402;28;20617;-68
2022/07/28 03:19:45;;;;;;;11.23;4.87;;;10.60;99.90;;;;;;5070651;28;20571;-68
2022/07/28 03:22:12;;;;;;;4.30;2.30;;;10.40;99.90;;;;;;5091422;28;20296;-69
2022/07/28 03:24:44;;;;;;;3.57;1.97;;;10.30;99.90;;;;;;5092176;28;20258;-68
2022/07/28 03:27:20;;;;;;;5.07;2.00;;;10.00;99.90;;;;;;5087136;28;20206;-69
2022/07/28 03:29:51;;;;;;;4.67;1.80;;;10.20;99.90;;;;;;5085861;28;20202;-68
2022/07/28 03:32:20;;;;;;;3.97;2.23;;;10.20;99.90;;;;;;5087314;28;20217;-68
2022/07/28 03:34:47;;;;;;;3.03;1.80;;;10.20;99.90;;;;;;5085213;28;20235;-68
2022/07/28 03:37:18;;;;;;;3.77;1.77;;;9.70;99.90;;;;;;5089530;28;20642;-69
2022/07/28 03:39:49;;;;;;;4.10;1.83;;;9.30;99.90;;;;;;5085364;28;20652;-68
2022/07/28 03:42:18;;;;;;;2.23;2.00;;;9.40;99.90;;;;;;5089911;28;20205;-68
2022/07/28 03:44:46;;;;;;;3.27;1.90;;;9.50;99.90;;;;;;5087976;28;20201;-68
2022/07/28 03:47:13;;;;;;;2.90;2.03;;;9.30;99.90;;;;;;5090386;28;20234;-68
2022/07/28 03:49:40;;;;;;;5.03;2.03;;;9.40;99.90;;;;;;5088811;28;20211;-68
2022/07/28 03:52:07;;;;;;;3.87;1.93;;;9.50;99.90;;;;;;5085716;28;20225;-68
2022/07/28 03:54:34;;;;;;;3.60;2.00;;;9.90;99.90;;;;;;5087161;28;20288;-68
2022/07/28 03:57:02;;;;;;;2.57;1.80;;;10.00;99.90;;;;;;5088108;28;20204;-69
2022/07/28 03:59:29;;;;;;;4.33;2.10;;;10.20;99.90;;;;;;5088321;28;20213;-68
2022/07/28 04:01:56;;;;;;;3.30;2.03;;;10.50;99.90;;;;;;5078460;28;20201;-68
2022/07/28 04:04:23;;;;;;;3.50;1.80;;;10.70;99.90;;;;;;5081307;28;20198;-69
2022/07/28 04:06:50;;;;;;;5.10;1.90;;;11.10;99.90;;;;;;5084520;28;20202;-69
2022/07/28 04:09:17;;;;;;;5.73;2.10;;;11.20;99.90;;;;;;5091379;28;20219;-68
2022/07/28 04:11:44;;;;;;;3.27;1.80;;;11.10;99.90;;;;;;5091002;28;20287;-68
2022/07/28 04:14:12;;;;;;;3.13;1.83;;;10.90;99.90;;;;;;5093400;28;20193;-69
2022/07/28 04:16:39;;;;;;;5.00;2.13;;;10.70;99.90;;;;;;5089240;28;20564;-68
2022/07/28 04:19:07;;;;;;;4.03;1.63;;;10.60;99.90;;;;;;5090378;28;20212;-69
2022/07/28 04:21:34;;;;;;;2.87;1.63;;;10.70;99.90;;;;;;5092026;28;20193;-68
2022/07/28 04:24:00;;;;;;;5.10;1.80;;;10.80;99.90;;;;;;5092067;28;20194;-68
2022/07/28 04:26:27;;;;;;;7.40;2.33;;;11.00;99.90;;;;;;5089456;28;20204;-69
2022/07/28 04:28:54;;;;;;;2.87;2.00;;;11.10;99.90;;;;;;5092378;28;20553;-69
2022/07/28 04:31:22;;;;;;;5.77;2.20;;;11.40;99.90;;;;;;5085637;28;20207;-68
2022/07/28 04:33:49;;;;;;;6.60;2.20;;;11.40;99.90;;;;;;5092435;28;20232;-68
2022/07/28 04:36:16;;;;;;;4.43;2.07;;;11.40;99.90;;;;;;5093170;28;20217;-68
2022/07/28 04:38:43;;;;;;;3.07;2.07;;;11.50;99.90;;;;;;5087180;28;20659;-68
2022/07/28 04:41:10;;;;;;;4.43;2.57;;;11.60;99.90;;;;;;5092824;28;20201;-69
2022/07/28 04:43:37;;;;;;;3.30;2.27;;;11.60;99.90;;;;;;5090993;28;20197;-68
2022/07/28 04:46:04;;;;;;;3.50;3.20;;;11.30;99.90;;;;;;5092909;28;20577;-68
2022/07/28 04:48:32;;;;;;;9.30;2.40;;;11.20;99.90;;;;;;5092549;28;20201;-68
2022/07/28 04:50:59;;;;;;;10.17;3.17;;;11.50;99.90;;;;;;5089557;28;20205;-69
2022/07/28 04:53:27;;;;;;;7.37;3.13;;;11.50;99.90;;;;;;5092704;28;20226;-68
2022/07/28 04:55:56;;;;;;;7.83;2.83;;;11.60;99.90;;;;;;5091069;28;20208;-68
2022/07/28 04:58:23;;;;;;;4.57;2.57;;;11.70;99.90;;;;;;5085288;28;20208;-68
2022/07/28 05:00:50;;;;;;;5.47;2.83;;;11.80;99.90;;;;;;5090771;28;20208;-69
2022/07/28 05:03:17;;;;;;;5.53;2.03;;;11.90;99.90;;;;;;5087389;28;20632;-68
2022/07/28 05:05:45;;;;;;;5.50;1.83;;;11.70;99.90;;;;;;5092321;28;20266;-69
2022/07/28 05:08:12;;;;;;;6.80;2.97;;;11.60;99.90;;;;;;5092942;28;20205;-68
2022/07/28 05:10:39;;;;;;;3.73;1.87;;;11.50;99.90;;;;;;5083415;28;20209;-68
2022/07/28 05:13:06;;;;;;;8.63;2.80;;;11.60;99.90;;;;;;5088150;28;20222;-69
2022/07/28 05:15:34;;;;;;;10.63;3.03;;;11.60;99.90;;;;;;5085663;28;20288;-68
2022/07/28 05:18:01;;;;;;;7.27;2.60;;;11.30;99.90;;;;;;5090632;28;20205;-69
2022/07/28 05:20:28;;;;;;;4.30;2.33;;;11.50;99.90;;;;;;5091816;28;20643;-68
2022/07/28 05:22:57;;;;;;;4.93;2.33;;;11.50;99.90;;;;;;5087970;28;20190;-64
2022/07/28 05:25:25;;;;;;;5.50;2.10;;;11.70;99.90;;;;;;5092709;28;20206;-64
2022/07/28 05:27:53;;;;;;;5.70;2.10;;;12.00;99.90;;;;;;5091152;28;20579;-64
2022/07/28 05:30:21;;;;;;;8.80;2.53;;;12.10;99.90;;;;;;5090911;28;20198;-64
2022/07/28 05:32:49;;;;;;;5.03;2.20;;;12.10;99.90;;;;;;5088803;28;20240;-64
2022/07/28 05:35:17;;;;;;;5.33;2.23;;;12.60;99.90;;;;;;5089590;28;20209;-64
2022/07/28 05:37:44;;;;;;;4.77;2.23;;;12.80;99.90;;;;;;5089403;28;20632;-64
2022/07/28 05:40:14;;;;;;;4.33;2.03;;;13.10;99.90;;;;;;5091172;28;20202;-64
2022/07/28 05:42:42;;;;;;;3.17;2.03;;;13.10;99.90;;;;;;5088533;28;20201;-64
2022/07/28 05:45:10;;;;;;;6.70;2.20;;;13.00;99.90;;;;;;5090507;28;20218;-64
2022/07/28 05:47:45;;;;;;;8.23;4.03;;;13.10;99.90;;;;;;5089811;28;20251;-64
2022/07/28 05:50:13;;;;;;;8.73;3.63;;;13.20;99.90;;;;;;5087254;28;20197;-64
2022/07/28 05:52:42;;;;;;;8.07;2.40;;;13.20;99.90;;;;;;5090607;28;20217;-64
2022/07/28 05:55:10;;;;;;;6.90;2.10;;;13.20;99.90;;;;;;5090170;28;20205;-64
2022/07/28 05:57:39;;;;;;;17.10;2.97;;;13.10;99.90;;;;;;5092183;28;20570;-64
2022/07/28 06:00:08;;;;;;;6.30;2.07;;;13.30;99.90;;;;;;5090413;28;20202;-64
2022/07/28 06:02:36;;;;;;;5.60;2.37;;;13.40;99.90;;;;;;5091323;28;20216;-64
2022/07/28 06:05:02;;;;;;;8.80;2.50;;;13.30;99.90;;;;;;5089167;28;20251;-64
2022/07/28 06:07:29;;;;;;;7.33;2.67;;;13.20;99.90;;;;;;5086040;28;20193;-64
2022/07/28 06:09:56;;;;;;;6.50;2.37;;;13.40;99.90;;;;;;5088129;28;20212;-64
2022/07/28 06:12:23;;;;;;;6.83;2.30;;;13.70;99.90;;;;;;5091189;28;20680;-64
2022/07/28 06:14:51;;;;;;;5.53;2.47;;;13.60;99.90;;;;;;5089522;28;20659;-64
2022/07/28 06:17:18;;;;;;;3.83;2.13;;;13.80;99.90;;;;;;5090714;28;20206;-64
2022/07/28 06:19:45;;;;;;;10.53;2.60;;;14.10;99.90;;;;;;5087910;28;20575;-64
2022/07/28 06:22:14;;;;;;;7.57;2.80;;;14.10;99.90;;;;;;5090884;28;20198;-64
2022/07/28 06:24:41;;;;;;;5.27;2.17;;;14.20;99.90;;;;;;5089345;28;20815;-64
2022/07/28 06:27:08;;;;;;;11.30;2.80;;;14.20;99.90;;;;;;5088616;28;20536;-64
2022/07/28 06:29:35;;;;;;;18.13;3.93;;;14.20;99.90;;;;;;5091851;28;20678;-64
2022/07/28 06:32:03;;;;;;;19.83;3.80;;;14.10;99.90;;;;;;5086506;28;20201;-64
2022/07/28 06:34:30;;;;;;;18.00;3.90;;;14.20;99.90;;;;;;5086880;28;20305;-64
2022/07/28 06:36:57;;;;;;;10.60;2.50;;;14.60;99.90;;;;;;5090656;28;20202;-64
2022/07/28 06:39:24;;;;;;;7.90;2.40;;;14.50;99.90;;;;;;5086023;28;20284;-64
2022/07/28 06:41:51;;;;;;;6.80;2.10;;;14.50;99.90;;;;;;5089776;28;20209;-64
2022/07/28 06:44:18;;;;;;;4.33;1.80;;;14.40;99.90;;;;;;5088303;28;20277;-64
2022/07/28 06:46:45;;;;;;;4.40;1.83;;;14.50;99.90;;;;;;5089352;28;20789;-64
2022/07/28 06:49:13;;;;;;;5.27;2.00;;;14.50;99.90;;;;;;5086752;28;20201;-64
2022/07/28 06:51:40;;;;;;;3.97;2.10;;;14.60;99.90;;;;;;5085943;28;20719;-64
2022/07/28 06:54:07;;;;;;;3.60;2.03;;;14.70;99.90;;;;;;5090654;28;20221;-64
2022/07/28 06:56:34;;;;;;;9.17;2.33;;;14.80;99.90;;;;;;5088211;28;20244;-64
2022/07/28 06:59:01;;;;;;;6.20;2.07;;;15.00;99.90;;;;;;5087158;28;20288;-64
2022/07/28 07:01:28;;;;;;;2.63;1.80;;;15.00;99.90;;;;;;5090926;28;20644;-64
2022/07/28 07:03:55;;;;;;;2.93;1.20;;;15.20;99.90;;;;;;5089295;28;20554;-64
2022/07/28 07:06:23;;;;;;;6.57;1.70;;;15.30;95.40;;;;;;5082682;28;20263;-64
2022/07/28 07:08:50;;;;;;;3.07;1.50;;;15.40;98.20;;;;;;5088210;28;20206;-64
2022/07/28 07:11:16;;;;;;;3.17;1.73;;;15.40;96.00;;;;;;5089486;28;20206;-64
2022/07/28 07:13:43;;;;;;;3.17;1.30;;;15.50;97.00;;;;;;5089698;28;20336;-64
2022/07/28 07:16:10;;;;;;;3.27;1.60;;;15.60;96.90;;;;;;5088141;28;20655;-64
2022/07/28 07:18:37;;;;;;;4.67;1.70;;;15.70;97.30;;;;;;5088937;28;20299;-64
2022/07/28 07:21:04;;;;;;;3.77;1.70;;;15.60;92.00;;;;;;5088080;28;20613;-64
2022/07/28 07:23:34;;;;;;;3.40;1.17;;;15.60;93.70;;;;;;5092202;28;20204;-64
2022/07/28 07:26:01;;;;;;;6.17;1.33;;;15.60;92.00;;;;;;5084877;28;20206;-64
2022/07/28 07:28:27;;;;;;;4.13;1.50;;;15.70;89.80;;;;;;5077807;28;20286;-64
2022/07/28 07:30:54;;;;;;;5.90;1.63;;;15.90;91.00;;;;;;5082522;28;20196;-64
2022/07/28 07:33:21;;;;;;;2.53;1.17;;;15.90;86.10;;;;;;5091703;28;20239;-64
2022/07/28 07:35:48;;;;;;;4.95;1.40;;;16.00;85.60;;;;;;5091472;28;20209;-64
2022/07/28 07:38:15;;;;;;;5.23;1.60;;;15.90;79.10;;;;;;5083086;28;20198;-64
2022/07/28 07:40:43;;;;;;;4.70;1.45;;;16.00;77.20;;;;;;5091521;28;20211;-64
2022/07/28 07:43:10;;;;;;;6.57;1.80;;;16.20;73.20;;;;;;5093553;28;20674;-64
2022/07/28 07:45:37;;;;;;;4.13;1.25;;;16.30;78.80;;;;;;5095506;28;20216;-65
2022/07/28 07:48:04;;;;;;;9.25;1.70;;;16.50;68.20;;;;;;5095586;28;20212;-64
2022/07/28 07:50:32;;;;;;;2.10;1.10;;;16.40;60.80;;;;;;5095987;28;20193;-64
2022/07/28 07:52:59;;;;;;;4.72;1.80;;;16.40;62.50;;;;;;5086175;28;20633;-64
2022/07/28 07:55:27;;;;;;;4.93;1.48;;;16.50;63.00;;;;;;5095360;28;20628;-64
2022/07/28 07:57:55;;;;;;;2.95;1.67;;;16.50;61.90;;;;;;5095022;28;20296;-64
2022/07/28 08:00:22;;;;;;;6.78;1.88;;;16.70;61.20;;;;;;5095619;28;20205;-65
2022/07/28 08:02:49;;;;;;;3.28;2.28;;;16.50;61.10;;;;;;5095785;28;20198;-66
2022/07/28 08:05:16;;;;;;;3.42;1.85;;;16.60;62.50;;;;;;5094207;28;20202;-65
2022/07/28 08:07:44;;;;;;;4.95;2.03;;;16.60;62.80;;;;;;5095633;28;20202;-65
2022/07/28 08:10:11;;;;;;;3.20;1.70;;;16.80;65.40;;;;;;5095438;28;20197;-65
2022/07/28 08:12:38;;;;;;;4.38;1.92;;;16.70;59.90;;;;;;5095229;28;20803;-65
2022/07/28 08:15:08;;;;;;;4.50;2.08;;;16.70;57.90;;;;;;5095524;28;20206;-65
2022/07/28 08:17:35;;;;;;;3.75;1.83;;;17.00;64.60;;;;;;5095856;28;20557;-65
2022/07/28 08:20:03;;;;;;;4.25;1.80;;;16.90;62.10;;;;;;5094369;28;20309;-68
2022/07/28 08:22:30;;;;;;;2.58;1.35;;;16.90;59.40;;;;;;5095095;28;20208;-68
2022/07/28 08:24:59;;;;;;;3.10;1.58;;;17.00;58.60;;;;;;5095551;28;20207;-68
2022/07/28 08:27:26;;;;;;;3.90;1.58;;;16.90;60.40;;;;;;5090535;28;20201;-68
2022/07/28 08:29:53;;;;;;;4.72;1.30;;;17.00;55.20;;;;;;5089237;28;20194;-68
2022/07/28 08:32:21;;;;;;;4.53;1.48;;;16.90;54.20;;;;;;5094121;28;20198;-67
2022/07/28 08:34:48;;;;;;;4.22;1.90;;;17.20;53.20;;;;;;5091362;28;20224;-68
2022/07/28 08:37:15;;;;;;;4.95;1.88;;;17.40;54.40;;;;;;5093177;28;20648;-68
2022/07/28 08:39:42;;;;;;;5.07;1.52;;;17.40;49.30;;;;;;5091495;28;20202;-68
2022/07/28 08:42:13;;;;;;;4.25;1.50;;;17.40;57.10;;;;;;5092707;28;20286;-68
2022/07/28 08:44:47;;;;;;;3.88;1.55;;;17.30;46.40;;;;;;5092963;28;20281;-72
2022/07/28 08:47:16;;;;;;;5.57;1.70;;;17.60;50.80;;;;;;5089438;28;20287;-72
2022/07/28 08:49:45;;;;;;;7.43;1.65;;;17.60;45.80;;;;;;5093074;28;20210;-72
2022/07/28 08:52:14;;;;;;;4.47;1.60;;;17.50;44.50;;;;;;5093204;28;20202;-72
2022/07/28 08:54:44;;;;;;;5.55;1.90;;;17.50;47.70;;;;;;5085815;28;20653;-72
2022/07/28 08:57:16;;;;;;;2.90;1.50;;;17.40;45.10;;;;;;5093499;28;20208;-72
2022/07/28 08:59:43;;;;;;;6.82;1.45;;;17.40;41.70;;;;;;5088409;28;20209;-72
2022/07/28 09:02:12;;;;;;;5.70;1.60;;;17.60;44.40;;;;;;5088460;28;20202;-72
2022/07/28 09:04:40;;;;;;;2.00;1.23;;;17.60;41.80;;;;;;5092709;28;20220;-72
2022/07/28 09:07:10;;;;;;;5.95;1.67;;;17.90;40.60;;;;;;5086995;28;20233;-72
2022/07/28 09:09:38;;;;;;;3.83;1.40;;;18.30;37.40;;;;;;5090203;28;20292;-72
2022/07/28 09:12:06;;;;;;;3.33;1.42;;;18.50;35.80;;;;;;5088552;28;20201;-72
2022/07/28 09:14:33;;;;;;;3.63;1.00;;;18.70;34.90;;;;;;5093123;28;20217;-73
2022/07/28 09:17:01;;;;;;;3.55;1.30;;;19.30;33.70;;;;;;5088414;28;20285;-72
2022/07/28 09:19:28;;;;;;;3.35;1.17;;;19.50;32.60;;;;;;5090038;28;20206;-73
2022/07/28 09:21:56;;;;;;;6.13;1.67;;;19.70;28.20;;;;;;5092991;28;20776;-72
2022/07/28 09:24:35;;;;;;;5.60;1.65;;;19.90;28.40;;;;;;5091357;28;20283;-73
2022/07/28 09:27:05;;;;;;;4.72;1.52;;;19.80;24.60;;;;;;5087144;28;20201;-73
2022/07/28 09:29:33;;;;;;;2.75;1.55;;;19.70;24.40;;;;;;5091876;28;20198;-73
2022/07/28 09:31:59;;;;;;;2.17;1.20;;;20.20;24.20;;;;;;5087728;28;20208;-73
2022/07/28 09:34:26;;;;;;;3.38;1.20;;;20.40;23.50;;;;;;5090001;28;20221;-72
2022/07/28 09:36:53;;;;;;;3.38;1.70;;;20.40;22.10;;;;;;5091406;28;20202;-73
2022/07/28 09:39:31;;;;;;;3.70;1.42;;;20.10;22.40;;;;;;5087096;28;20280;-73
2022/07/28 09:42:00;;;;;;;5.68;1.90;;;20.50;24.30;;;;;;5088888;28;20202;-73
2022/07/28 09:44:27;;;;;;;4.85;1.58;;;20.50;21.90;;;;;;5088796;28;20194;-73
2022/07/28 09:46:55;;;;;;;1.70;1.40;;;20.70;22.90;;;;;;5091868;28;20306;-73
2022/07/28 09:49:38;;;;;;;2.65;1.48;;;20.90;20.40;;;;;;5089030;28;20194;-73
2022/07/28 09:52:05;;;;;;;9.13;2.03;;;20.50;23.30;;;;;;5091087;28;20197;-73
2022/07/28 09:54:32;;;;;;;6.82;1.75;;;21.00;19.10;;;;;;5092060;28;20312;-73
2022/07/28 09:57:01;;;;;;;7.13;1.48;;;20.90;19.50;;;;;;5089393;28;20281;-73
2022/07/28 09:59:40;;;;;;;4.50;1.45;;;21.30;17.00;;;;;;5089931;28;20212;-73
2022/07/28 10:02:07;;;;;;;2.70;1.40;;;21.00;20.20;;;;;;5091371;28;20649;-73
2022/07/28 10:04:36;;;;;;;3.85;1.40;;;20.80;18.40;;;;;;5088858;28;20205;-73
2022/07/28 10:07:10;;;;;;;3.08;1.35;;;21.30;17.40;;;;;;5089897;28;20656;-73
2022/07/28 10:09:37;;;;;;;5.07;1.95;;;21.50;16.10;;;;;;5088439;28;20214;-73
2022/07/28 10:12:20;;;;;;;3.97;1.88;;;21.50;17.20;;;;;;5085569;28;20521;-73
2022/07/28 10:14:47;;;;;;;4.93;1.77;;;21.10;16.80;;;;;;5090699;28;20218;-73
2022/07/28 10:17:25;;;;;;;2.47;1.50;;;21.50;17.50;;;;;;5088563;28;20622;-73
2022/07/28 10:19:53;;;;;;;3.70;1.75;;;21.20;16.30;;;;;;5089518;28;20251;-73
2022/07/28 10:22:22;;;;;;;5.00;1.45;;;22.00;14.90;;;;;;5090080;28;20294;-73
2022/07/28 10:24:52;;;;;;;4.50;1.58;;;22.30;15.10;;;;;;5089109;28;20683;-73
2022/07/28 10:27:23;;;;;;;3.65;1.40;;;21.70;18.30;;;;;;5073322;28;20713;-73
2022/07/28 10:29:55;;;;;;;3.63;1.50;;;22.00;14.80;;;;;;5086345;28;20205;-73
2022/07/28 10:32:23;;;;;;;3.65;1.60;;;22.10;14.60;;;;;;5082269;28;20236;-73
2022/07/28 10:34:52;;;;;;;3.53;1.83;;;22.40;14.10;;;;;;5071359;28;20224;-73
2022/07/28 10:37:22;;;;;;;4.53;1.70;;;22.10;13.60;;;;;;5071496;28;20206;-73
2022/07/28 10:39:55;;;;;;;6.05;1.92;;;21.80;13.50;;;;;;5070941;28;20354;-73
2022/07/28 10:42:24;;;;;;;4.75;1.92;;;22.20;12.10;;;;;;5072479;28;20206;-73
2022/07/28 10:44:52;;;;;;;3.60;1.98;;;21.80;15.80;;;;;;5072381;28;20736;-73
2022/07/28 10:47:20;;;;;;;5.50;2.05;;;21.90;14.70;;;;;;5092572;28;20256;-73
2022/07/28 10:49:47;;;;;;;4.68;1.88;;;22.20;13.00;;;;;;5092316;28;20189;-73
2022/07/28 10:52:16;;;;;;;2.55;1.60;;;21.80;12.60;;;;;;5091972;28;20465;-73
2022/07/28 10:54:49;;;;;;;5.00;1.88;;;22.20;14.20;;;;;;5087341;28;20217;-73
2022/07/28 10:57:17;;;;;;;4.60;1.75;;;22.00;10.60;;;;;;5088377;28;20209;-73
2022/07/28 11:00:17;;;;;;;6.53;1.90;;;22.00;14.00;;;;;;5088584;28;20317;-73
2022/07/28 11:02:49;;;;;;;7.50;1.55;;;22.50;12.10;;;;;;5007852;28;20215;-73
2022/07/28 11:05:34;;;;;;;5.88;2.22;;;23.00;9.00;;;;;;5073007;28;20225;-73
2022/07/28 11:08:04;;;;;;;1.90;1.40;;;22.70;7.70;;;;;;5087157;28;20233;-73
2022/07/28 11:10:44;;;;;;;4.55;1.90;;;22.50;8.90;;;;;;5089393;28;20633;-73
2022/07/28 11:13:24;;;;;;;4.38;1.65;;;22.90;8.40;;;;;;5086686;28;20586;-73
2022/07/28 11:15:53;;;;;;;4.15;1.30;;;22.40;9.30;;;;;;5086497;28;20225;-73
2022/07/28 11:18:20;;;;;;;4.53;1.45;;;22.00;8.60;;;;;;5090447;28;20648;-73
2022/07/28 11:21:09;;;;;;;4.55;1.95;;;22.80;7.30;;;;;;5088580;28;20198;-73
2022/07/28 11:23:53;;;;;;;2.60;1.80;;;22.40;7.00;;;;;;5082333;28;20244;-73
2022/07/28 11:26:33;;;;;;;4.75;2.10;;;22.60;7.70;;;;;;5088330;28;20198;-73
2022/07/28 11:29:24;;;;;;;3.83;1.60;;;22.80;6.90;;;;;;5084570;28;20250;-73
2022/07/28 11:32:02;;;;;;;4.97;1.45;;;23.50;6.40;;;;;;5068654;28;20210;-73
2022/07/28 11:35:08;;;;;;;2.92;1.50;;;23.50;4.70;;;;;;5085049;28;20320;-73
2022/07/28 11:38:07;;;;;;;4.55;1.67;;;22.80;6.70;;;;;;5085352;28;20200;-73
2022/07/28 11:40:36;;;;;;;6.60;1.80;;;23.10;5.20;;;;;;5079555;28;20207;-73
2022/07/28 11:43:25;;;;;;;2.05;1.27;;;24.00;6.30;;;;;;5079623;28;20574;-73
2022/07/28 11:46:14;;;;;;;3.38;1.58;;;23.20;3.50;;;;;;5082785;28;20204;-73
2022/07/28 11:48:44;;;;;;;6.13;1.70;;;22.60;3.80;;;;;;5087171;28;20656;-73
2022/07/28 11:51:11;;;;;;;4.65;1.58;;;24.10;1.50;;;;;;5090268;28;20198;-74
2022/07/28 11:53:39;;;;;;;4.95;1.48;;;25.00;1.00;;;;;;5087758;28;20731;-73
2022/07/28 11:56:07;;;;;;;5.50;1.58;;;24.80;1.30;;;;;;5085592;28;20221;-73
2022/07/28 11:58:35;;;;;;;4.20;1.55;;;25.20;3.40;;;;;;5087086;28;20702;-73
2022/07/28 12:01:12;;;;;;;2.50;1.05;;;24.70;1.70;;;;;;5082074;28;20206;-74
2022/07/28 12:03:41;;;;;;;4.32;1.70;;;25.00;1.00;;;;;;5087329;28;20235;-75
2022/07/28 12:06:10;;;;;;;3.17;2.10;;;25.00;1.00;;;;;;5089802;28;20249;-73
2022/07/28 12:08:50;;;;;;;4.05;1.48;;;23.80;1.00;;;;;;5087899;28;20579;-73
2022/07/28 12:11:17;;;;;;;4.13;1.40;;;23.50;1.00;;;;;;5088893;28;20662;-72
2022/07/28 12:13:44;;;;;;;2.97;1.50;;;23.60;1.00;;;;;;5088610;28;20206;-73
2022/07/28 12:16:11;;;;;;;3.08;1.50;;;23.40;1.00;;;;;;5089530;28;20226;-73
2022/07/28 12:18:38;;;;;;;2.35;1.38;;;23.40;2.30;;;;;;5083391;28;20625;-73
2022/07/28 12:21:05;;;;;;;3.05;1.60;;;23.20;1.00;;;;;;5089506;28;20201;-73
2022/07/28 12:23:36;;;;;;;3.90;1.40;;;23.00;1.00;;;;;;5090119;28;20212;-73
2022/07/28 12:26:05;;;;;;;4.47;1.55;;;23.40;1.00;;;;;;5084833;28;20653;-73
2022/07/28 12:28:31;;;;;;;1.80;1.60;;;24.40;1.00;;;;;;5087646;28;20205;-73
2022/07/28 12:31:10;;;;;;;5.72;1.70;;;23.50;1.00;;;;;;5087979;28;20198;-73
2022/07/28 12:33:37;;;;;;;6.25;2.00;;;23.20;1.00;;;;;;5092800;28;20740;-73
2022/07/28 12:36:05;;;;;;;10.15;2.08;;;23.20;1.10;;;;;;5089901;28;20227;-72
2022/07/28 12:38:34;;;;;;;10.35;1.73;;;23.80;1.00;;;;;;5092085;28;20223;-72
2022/07/28 12:41:01;;;;;;;9.48;2.00;;;23.50;1.00;;;;;;5090982;28;20201;-72
2022/07/28 12:43:29;;;;;;;9.50;2.05;;;24.10;1.00;;;;;;5093148;28;20210;-72
2022/07/28 12:45:56;;;;;;;4.28;1.70;;;23.50;1.00;;;;;;5092140;28;20566;-72
2022/07/28 12:48:23;;;;;;;3.05;1.40;;;23.40;1.00;;;;;;5092982;28;20558;-72
2022/07/28 12:50:51;;;;;;;3.33;1.63;;;23.70;1.00;;;;;;5086307;28;20347;-73
2022/07/28 12:53:20;;;;;;;1.70;1.40;;;24.40;1.00;;;;;;5093577;28;20205;-72
2022/07/28 12:55:49;;;;;;;4.75;1.67;;;24.00;1.00;;;;;;5088240;28;20688;-73
2022/07/28 12:58:25;;;;;;;4.85;1.52;;;24.80;1.00;;;;;;5091942;28;20716;-73
2022/07/28 13:00:53;;;;;;;3.28;1.92;;;25.20;1.00;;;;;;5090415;28;20280;-72
2022/07/28 13:03:23;;;;;;;7.07;1.67;;;23.90;1.00;;;;;;5086311;28;20209;-72